createdAt,value
2018-05-17T00:01:02.520Z,10.80
2018-05-17T00:03:29.986Z,10.80
2018-05-17T00:05:57.477Z,10.80
2018-05-17T00:08:26.578Z,10.80
2018-05-17T00:10:54.838Z,10.80
2018-05-17T00:13:22.345Z,10.80
2018-05-17T00:15:49.836Z,10.80
2018-05-17T00:18:17.360Z,10.80
2018-05-17T00:20:44.865Z,10.90
2018-05-17T00:23:12.398Z,10.90
2018-05-17T00:25:39.887Z,10.90
2018-05-17T00:28:07.400Z,10.90
2018-05-17T00:30:34.870Z,10.90
2018-05-17T00:33:02.380Z,10.90
2018-05-17T00:35:30.632Z,10.90
2018-05-17T00:37:58.107Z,10.90
2018-05-17T00:40:25.626Z,10.80
2018-05-17T00:42:53.217Z,10.90
2018-05-17T00:45:20.690Z,10.90
2018-05-17T00:47:48.993Z,10.90
2018-05-17T00:50:16.500Z,10.90
2018-05-17T00:52:43.961Z,10.80
2018-05-17T00:55:11.461Z,10.90
2018-05-17T00:57:38.960Z,10.80
2018-05-17T01:00:06.478Z,10.80
2018-05-17T01:02:34.723Z,10.80
2018-05-17T01:05:02.227Z,10.80
2018-05-17T01:07:29.717Z,10.80
2018-05-17T01:09:57.187Z,10.80
2018-05-17T01:12:24.685Z,10.90
2018-05-17T01:14:52.933Z,10.90
2018-05-17T01:17:20.442Z,10.90
2018-05-17T01:19:47.909Z,10.90
2018-05-17T01:22:15.421Z,10.90
2018-05-17T01:24:43.665Z,10.80
2018-05-17T01:27:11.156Z,10.80
2018-05-17T01:29:39.413Z,10.70
2018-05-17T01:32:06.911Z,10.70
2018-05-17T01:34:35.160Z,10.60
2018-05-17T01:37:14.593Z,10.60
2018-05-17T01:39:42.068Z,10.60
2018-05-17T01:42:09.621Z,10.60
2018-05-17T01:44:37.053Z,10.60
2018-05-17T01:47:04.527Z,10.60
2018-05-17T01:49:32.013Z,10.60
2018-05-17T01:52:00.276Z,10.60
2018-05-17T01:54:27.759Z,10.50
2018-05-17T01:56:56.022Z,10.50
2018-05-17T01:59:24.262Z,10.60
2018-05-17T02:01:51.746Z,10.60
2018-05-17T02:04:19.255Z,10.60
2018-05-17T02:06:46.725Z,10.60
2018-05-17T02:09:14.249Z,10.60
2018-05-17T02:11:42.476Z,10.60
2018-05-17T02:14:11.480Z,10.60
2018-05-17T02:16:39.721Z,10.60
2018-05-17T02:19:07.317Z,10.60
2018-05-17T02:21:34.753Z,10.60
2018-05-17T02:24:02.357Z,10.60
2018-05-17T02:26:30.621Z,10.60
2018-05-17T02:28:58.108Z,10.60
2018-05-17T02:31:26.361Z,10.70
2018-05-17T02:33:53.857Z,10.70
2018-05-17T02:36:21.349Z,10.70
2018-05-17T02:38:48.817Z,10.60
2018-05-17T02:41:16.317Z,10.60
2018-05-17T02:43:43.915Z,10.70
2018-05-17T02:46:11.413Z,10.60
2018-05-17T02:48:38.902Z,10.70
2018-05-17T02:51:06.411Z,10.70
2018-05-17T02:53:33.919Z,10.70
2018-05-17T02:56:02.174Z,10.80
2018-05-17T02:58:30.411Z,10.80
2018-05-17T03:00:57.915Z,10.70
2018-05-17T03:03:26.158Z,10.80
2018-05-17T03:05:53.695Z,10.80
2018-05-17T03:08:21.190Z,10.80
2018-05-17T03:10:48.713Z,10.80
2018-05-17T03:13:16.189Z,10.80
2018-05-17T03:15:43.681Z,10.80
2018-05-17T03:18:11.933Z,10.80
2018-05-17T03:20:39.437Z,10.80
2018-05-17T03:23:07.681Z,10.80
2018-05-17T03:25:35.944Z,10.80
2018-05-17T03:28:04.960Z,10.80
2018-05-17T03:30:32.452Z,10.80
2018-05-17T03:32:59.970Z,10.80
2018-05-17T03:35:27.449Z,10.80
2018-05-17T03:37:55.758Z,10.80
2018-05-17T03:40:23.261Z,10.70
2018-05-17T03:42:50.764Z,10.80
2018-05-17T03:45:18.274Z,10.80
2018-05-17T03:47:45.777Z,10.70
2018-05-17T03:50:13.297Z,10.70
2018-05-17T03:52:40.769Z,10.70
2018-05-17T03:55:08.267Z,10.70
2018-05-17T03:57:35.737Z,10.70
2018-05-17T04:00:03.264Z,10.70
2018-05-17T04:02:42.613Z,10.70
2018-05-17T04:05:22.098Z,10.70
2018-05-17T04:07:49.564Z,10.70
2018-05-17T04:10:17.100Z,10.70
2018-05-17T04:12:44.583Z,10.80
2018-05-17T04:15:12.049Z,10.80
2018-05-17T04:17:39.581Z,10.80
2018-05-17T04:20:07.079Z,10.80
2018-05-17T04:22:35.341Z,10.80
2018-05-17T04:25:02.825Z,10.80
2018-05-17T04:27:31.116Z,10.90
2018-05-17T04:29:58.610Z,10.80
2018-05-17T04:32:26.147Z,10.90
2018-05-17T04:34:53.640Z,10.90
2018-05-17T04:37:21.137Z,10.90
2018-05-17T04:39:49.385Z,11.00
2018-05-17T04:42:16.903Z,10.90
2018-05-17T04:44:44.409Z,11.00
2018-05-17T04:47:11.977Z,11.00
2018-05-17T04:49:39.449Z,11.10
2018-05-17T04:52:07.712Z,11.10
2018-05-17T04:54:35.960Z,11.10
2018-05-17T04:57:03.488Z,11.10
2018-05-17T04:59:30.999Z,11.10
2018-05-17T05:01:58.497Z,11.20
2018-05-17T05:04:26.012Z,11.20
2018-05-17T05:06:53.477Z,11.20
2018-05-17T05:09:21.076Z,11.30
2018-05-17T05:11:48.462Z,11.30
2018-05-17T05:14:15.966Z,11.30
2018-05-17T05:16:44.225Z,11.40
2018-05-17T05:19:11.741Z,11.40
2018-05-17T05:21:39.269Z,11.50
2018-05-17T05:24:07.532Z,11.50
2018-05-17T05:26:35.005Z,11.50
2018-05-17T05:29:03.264Z,11.60
2018-05-17T05:31:30.781Z,11.60
2018-05-17T05:33:58.268Z,11.60
2018-05-17T05:36:25.770Z,11.70
2018-05-17T05:38:53.270Z,11.80
2018-05-17T05:41:20.759Z,11.80
2018-05-17T05:43:48.247Z,11.90
2018-05-17T05:46:15.749Z,11.90
2018-05-17T05:48:43.266Z,12.00
2018-05-17T05:51:11.494Z,11.90
2018-05-17T05:53:39.011Z,11.90
2018-05-17T05:56:06.513Z,11.90
2018-05-17T05:58:34.016Z,12.00
2018-05-17T06:01:01.519Z,12.00
2018-05-17T06:03:29.009Z,12.00
2018-05-17T06:06:02.178Z,12.10
2018-05-17T06:08:29.676Z,12.20
2018-05-17T06:10:57.944Z,12.20
2018-05-17T06:13:26.197Z,12.30
2018-05-17T06:15:53.720Z,12.30
2018-05-17T06:18:21.203Z,12.30
2018-05-17T06:20:48.719Z,12.30
2018-05-17T06:23:16.217Z,12.20
2018-05-17T06:25:43.718Z,12.20
2018-05-17T06:28:11.961Z,12.30
2018-05-17T06:30:39.472Z,12.20
2018-05-17T06:33:06.948Z,12.20
2018-05-17T06:35:34.445Z,12.20
2018-05-17T06:38:01.943Z,12.10
2018-05-17T06:40:29.429Z,12.10
2018-05-17T06:42:56.925Z,12.10
2018-05-17T06:45:25.210Z,12.20
2018-05-17T06:47:52.682Z,12.20
2018-05-17T06:50:20.930Z,12.20
2018-05-17T06:52:48.451Z,12.20
2018-05-17T06:55:15.952Z,12.20
2018-05-17T06:57:43.480Z,12.20
2018-05-17T07:00:11.014Z,12.20
2018-05-17T07:02:38.488Z,12.30
2018-05-17T07:05:05.990Z,12.30
2018-05-17T07:07:33.521Z,12.30
2018-05-17T07:10:01.014Z,12.30
2018-05-17T07:12:28.496Z,12.30
2018-05-17T07:14:56.757Z,12.30
2018-05-17T07:17:25.009Z,12.30
2018-05-17T07:19:52.519Z,12.30
2018-05-17T07:22:20.782Z,12.40
2018-05-17T07:24:49.054Z,12.50
2018-05-17T07:27:17.301Z,12.50
2018-05-17T07:29:44.792Z,12.50
2018-05-17T07:32:13.059Z,12.50
2018-05-17T07:34:40.570Z,12.50
2018-05-17T07:37:08.056Z,12.70
2018-05-17T07:39:35.576Z,12.90
2018-05-17T07:42:03.057Z,13.30
2018-05-17T07:44:30.564Z,13.40
2018-05-17T07:46:58.835Z,13.50
2018-05-17T07:49:27.073Z,13.60
2018-05-17T07:51:54.620Z,13.60
2018-05-17T07:54:22.089Z,13.60
2018-05-17T07:56:49.630Z,13.60
2018-05-17T07:59:17.094Z,13.80
2018-05-17T08:01:44.603Z,13.70
2018-05-17T08:04:12.846Z,13.80
2018-05-17T08:06:40.357Z,13.80
2018-05-17T08:09:08.598Z,13.60
2018-05-17T08:11:36.123Z,13.60
2018-05-17T08:14:03.653Z,13.50
2018-05-17T08:16:31.941Z,13.30
2018-05-17T08:18:59.410Z,13.30
2018-05-17T08:21:26.863Z,13.20
2018-05-17T08:23:54.402Z,13.20
2018-05-17T08:26:22.654Z,13.20
2018-05-17T08:28:50.973Z,13.30
2018-05-17T08:31:19.176Z,13.20
2018-05-17T08:33:46.760Z,13.20
2018-05-17T08:36:14.356Z,13.20
2018-05-17T08:38:42.517Z,13.30
2018-05-17T08:47:05.287Z,13.10
2018-05-17T08:49:32.774Z,13.10
2018-05-17T08:52:00.238Z,13.10
2018-05-17T08:54:27.775Z,13.10
2018-05-17T08:56:55.241Z,13.10
2018-05-17T08:59:22.765Z,13.00
2018-05-17T09:01:50.271Z,13.10
2018-05-17T09:04:17.772Z,13.00
2018-05-17T09:06:46.057Z,13.40
2018-05-17T09:09:13.597Z,13.30
2018-05-17T09:11:41.864Z,13.50
2018-05-17T09:14:09.350Z,13.50
2018-05-17T09:16:37.615Z,13.50
2018-05-17T09:19:05.876Z,13.50
2018-05-17T09:21:33.367Z,13.50
2018-05-17T09:24:00.868Z,13.50
2018-05-17T09:26:28.369Z,13.60
2018-05-17T09:28:56.612Z,13.40
2018-05-17T09:31:24.127Z,13.40
2018-05-17T09:33:51.609Z,13.30
2018-05-17T09:36:19.112Z,13.20
2018-05-17T09:38:46.600Z,13.10
2018-05-17T09:41:14.085Z,13.10
2018-05-17T09:43:41.580Z,13.00
2018-05-17T09:46:09.078Z,13.00
2018-05-17T09:48:36.585Z,12.90
2018-05-17T09:51:04.040Z,12.90
2018-05-17T09:53:31.545Z,12.80
2018-05-17T09:55:59.054Z,12.80
2018-05-17T09:58:26.583Z,12.70
2018-05-17T10:00:54.090Z,12.80
2018-05-17T10:03:23.373Z,12.70
2018-05-17T10:05:50.876Z,12.80
2018-05-17T10:08:19.135Z,12.80
2018-05-17T10:10:47.383Z,12.70
2018-05-17T10:13:14.885Z,12.70
2018-05-17T10:15:43.133Z,12.70
2018-05-17T10:18:10.621Z,12.70
2018-05-17T10:20:38.911Z,12.70
2018-05-17T10:23:06.403Z,12.70
2018-05-17T10:25:33.913Z,12.60
2018-05-17T10:28:02.175Z,12.90
2018-05-17T10:30:30.449Z,12.90
2018-05-17T10:32:59.450Z,12.90
2018-05-17T10:35:27.733Z,12.90
2018-05-17T10:37:55.976Z,13.00
2018-05-17T10:40:23.494Z,13.00
2018-05-17T10:42:50.973Z,12.90
2018-05-17T10:45:18.517Z,12.80
2018-05-17T10:47:46.023Z,12.80
2018-05-17T10:50:13.537Z,12.90
2018-05-17T10:52:41.025Z,12.90
2018-05-17T10:55:08.534Z,12.90
2018-05-17T10:57:36.801Z,12.90
2018-05-17T11:00:05.054Z,12.90
2018-05-17T11:02:32.586Z,12.90
2018-05-17T11:05:00.834Z,12.80
2018-05-17T11:07:28.340Z,12.80
2018-05-17T11:09:55.845Z,12.80
2018-05-17T11:12:23.358Z,12.70
2018-05-17T11:14:50.834Z,12.80
2018-05-17T11:17:19.125Z,13.00
2018-05-17T11:19:47.377Z,12.90
2018-05-17T11:22:14.899Z,12.90
2018-05-17T11:24:42.376Z,12.90
2018-05-17T11:27:09.859Z,13.00
2018-05-17T11:29:37.379Z,13.10
2018-05-17T11:32:04.844Z,13.20
2018-05-17T11:34:32.373Z,13.20
2018-05-17T11:36:59.865Z,13.30
2018-05-17T11:39:27.414Z,13.30
2018-05-17T11:41:54.890Z,13.20
2018-05-17T11:44:22.373Z,13.30
2018-05-17T11:46:49.880Z,13.30
2018-05-17T11:49:17.366Z,13.30
2018-05-17T11:51:44.865Z,13.40
2018-05-17T11:54:13.125Z,13.20
2018-05-17T11:56:40.672Z,13.30
2018-05-17T11:59:08.165Z,13.30
2018-05-17T12:01:36.531Z,13.20
2018-05-17T12:04:04.686Z,13.20
2018-05-17T12:06:32.198Z,13.20
2018-05-17T12:08:59.707Z,13.30
2018-05-17T12:11:27.241Z,13.20
2018-05-17T12:13:54.733Z,13.20
2018-05-17T12:16:22.245Z,13.20
2018-05-17T12:18:49.745Z,13.30
2018-05-17T12:21:17.998Z,13.10
2018-05-17T12:23:45.496Z,13.10
2018-05-17T12:26:13.774Z,13.10
2018-05-17T12:28:41.289Z,13.10
2018-05-17T12:31:08.782Z,13.10
2018-05-17T12:33:36.292Z,13.10
2018-05-17T12:36:03.776Z,13.20
2018-05-17T12:38:31.284Z,13.20
2018-05-17T12:40:59.576Z,13.20
2018-05-17T12:43:27.073Z,13.30
2018-05-17T12:45:54.588Z,13.20
2018-05-17T12:48:22.863Z,13.20
2018-05-17T12:50:51.141Z,13.30
2018-05-17T12:53:18.629Z,13.20
2018-05-17T12:55:46.156Z,13.30
2018-05-17T12:58:14.430Z,13.40
2018-05-17T13:00:42.702Z,13.40
2018-05-17T13:03:10.936Z,13.30
2018-05-17T13:05:38.530Z,13.30
2018-05-17T13:08:06.778Z,13.30
2018-05-17T13:10:34.284Z,13.30
2018-05-17T13:13:02.581Z,13.30
2018-05-17T13:15:30.066Z,13.30
2018-05-17T13:17:57.542Z,13.20
2018-05-17T13:20:25.077Z,13.20
2018-05-17T13:22:52.561Z,13.10
2018-05-17T13:25:20.065Z,13.10
2018-05-17T13:27:47.567Z,12.90
2018-05-17T13:30:15.125Z,12.80
2018-05-17T13:32:42.614Z,12.90
2018-05-17T13:35:10.905Z,12.80
2018-05-17T13:37:39.154Z,12.60
2018-05-17T13:40:06.646Z,12.60
2018-05-17T13:42:34.148Z,12.70
2018-05-17T13:45:01.626Z,12.60
2018-05-17T13:47:29.161Z,12.60
2018-05-17T13:49:56.621Z,12.60
2018-05-17T13:52:24.142Z,12.50
2018-05-17T13:54:51.624Z,12.50
2018-05-17T13:57:19.142Z,12.60
2018-05-17T13:59:47.395Z,12.70
2018-05-17T14:02:14.924Z,12.70
2018-05-17T14:04:42.426Z,12.80
2018-05-17T14:07:09.938Z,12.70
2018-05-17T14:09:37.532Z,12.70
2018-05-17T14:12:05.703Z,12.80
2018-05-17T14:14:33.221Z,12.70
2018-05-17T14:17:00.740Z,12.70
2018-05-17T14:19:28.267Z,12.60
2018-05-17T14:21:55.755Z,12.70
2018-05-17T14:24:23.271Z,12.70
2018-05-17T14:26:54.394Z,12.80
2018-05-17T14:29:21.937Z,12.70
2018-05-17T14:31:50.229Z,12.70
2018-05-17T14:34:18.475Z,12.60
2018-05-17T14:36:46.767Z,12.50
2018-05-17T14:39:15.013Z,12.50
2018-05-17T14:41:42.532Z,12.50
2018-05-17T14:44:10.029Z,12.50
2018-05-17T14:46:37.568Z,12.50
2018-05-17T14:49:05.053Z,12.60
2018-05-17T14:51:32.573Z,12.80
2018-05-17T14:54:00.062Z,13.00
2018-05-17T14:56:27.606Z,13.10
2018-05-17T14:58:55.090Z,13.10
2018-05-17T15:01:22.568Z,13.10
2018-05-17T15:03:50.857Z,13.10
2018-05-17T15:06:19.116Z,13.10
2018-05-17T15:08:46.658Z,13.10
2018-05-17T15:11:14.967Z,13.10
2018-05-17T15:13:41.655Z,13.20
2018-05-17T15:16:09.176Z,13.20
2018-05-17T15:18:37.462Z,13.20
2018-05-17T15:21:04.941Z,13.10
2018-05-17T15:23:32.444Z,13.30
2018-05-17T15:25:59.936Z,13.40
2018-05-17T15:28:28.215Z,13.40
2018-05-17T15:30:55.729Z,13.40
2018-05-17T15:33:23.247Z,13.50
2018-05-17T15:35:50.746Z,13.40
2018-05-17T15:38:18.278Z,13.40
2018-05-17T15:40:45.783Z,13.50
2018-05-17T15:43:13.281Z,13.50
2018-05-17T15:45:40.797Z,13.50
2018-05-17T15:48:08.384Z,13.50
2018-05-17T15:50:35.836Z,13.40
2018-05-17T15:53:04.093Z,13.40
2018-05-17T15:55:31.617Z,13.40
2018-05-17T15:57:59.126Z,13.50
2018-05-17T16:00:27.398Z,13.30
2018-05-17T16:02:55.681Z,13.30
2018-05-17T16:05:23.981Z,13.30
2018-05-17T16:07:51.461Z,13.30
2018-05-17T16:10:18.994Z,13.30
2018-05-17T16:12:46.478Z,13.20
2018-05-17T16:15:14.111Z,13.20
2018-05-17T16:17:42.275Z,13.20
2018-05-17T16:20:10.577Z,13.30
2018-05-17T16:22:38.070Z,13.30
2018-05-17T16:25:05.564Z,13.30
2018-05-17T16:27:33.861Z,13.20
2018-05-17T16:30:01.335Z,13.20
2018-05-17T16:32:28.858Z,13.20
2018-05-17T16:34:57.107Z,13.10
2018-05-17T16:37:24.617Z,13.10
2018-05-17T16:39:52.103Z,13.10
2018-05-17T16:42:19.611Z,13.20
2018-05-17T16:44:47.897Z,13.40
2018-05-17T16:47:16.155Z,13.50
2018-05-17T16:49:44.431Z,13.40
2018-05-17T16:52:12.701Z,13.40
2018-05-17T16:54:41.739Z,13.50
2018-05-17T16:57:09.251Z,13.50
2018-05-17T16:59:36.771Z,13.40
2018-05-17T17:02:04.287Z,13.40
2018-05-17T17:04:32.604Z,13.40
2018-05-17T17:07:00.154Z,13.40
2018-05-17T17:09:27.617Z,13.50
2018-05-17T17:11:55.093Z,13.50
2018-05-17T17:14:22.600Z,13.50
2018-05-17T17:16:50.876Z,13.50
2018-05-17T17:19:19.878Z,13.50
2018-05-17T17:21:48.150Z,13.50
2018-05-17T17:24:16.397Z,13.50
2018-05-17T17:26:43.912Z,13.50
2018-05-17T17:29:11.394Z,13.60
2018-05-17T17:31:38.907Z,13.60
2018-05-17T17:34:07.144Z,13.50
2018-05-17T17:36:34.705Z,13.50
2018-05-17T17:39:02.177Z,13.40
2018-05-17T17:41:29.685Z,13.40
2018-05-17T17:43:57.179Z,13.40
2018-05-17T17:46:24.707Z,13.30
2018-05-17T17:48:52.207Z,13.30
2018-05-17T17:51:19.712Z,13.30
2018-05-17T17:53:47.208Z,13.20
2018-05-17T17:56:14.717Z,13.20
2018-05-17T17:58:42.976Z,13.20
2018-05-17T18:01:11.988Z,13.10
2018-05-17T18:03:40.272Z,13.10
2018-05-17T18:06:08.613Z,13.00
2018-05-17T18:08:36.877Z,13.00
2018-05-17T18:11:04.386Z,12.90
2018-05-17T18:13:32.668Z,12.80
2018-05-17T18:16:00.157Z,12.80
2018-05-17T18:18:27.660Z,12.80
2018-05-17T18:20:55.168Z,12.80
2018-05-17T18:23:22.682Z,12.70
2018-05-17T18:25:50.166Z,12.70
2018-05-17T18:28:17.690Z,12.60
2018-05-17T18:30:46.319Z,12.60
2018-05-17T18:33:13.804Z,12.60
2018-05-17T18:35:41.330Z,12.60
2018-05-17T18:38:08.809Z,12.60
2018-05-17T18:40:36.344Z,12.60
2018-05-17T18:43:03.894Z,12.50
2018-05-17T18:45:33.193Z,12.40
2018-05-17T18:48:01.466Z,12.50
2018-05-17T18:50:29.756Z,12.50
2018-05-17T18:52:58.021Z,12.40
2018-05-17T18:55:26.332Z,12.30
2018-05-17T18:57:53.805Z,12.30
2018-05-17T19:00:21.416Z,12.30
2018-05-17T19:02:49.716Z,12.30
2018-05-17T19:05:17.981Z,12.20
2018-05-17T19:07:45.458Z,12.20
2018-05-17T19:10:12.964Z,12.20
2018-05-17T19:12:40.501Z,12.20
2018-05-17T19:15:08.007Z,12.10
2018-05-17T19:17:36.262Z,12.10
2018-05-17T19:20:03.793Z,12.10
2018-05-17T19:22:31.287Z,12.10
2018-05-17T19:24:58.796Z,12.10
2018-05-17T19:27:26.269Z,12.00
2018-05-17T19:29:53.803Z,12.00
2018-05-17T19:32:21.294Z,12.00
2018-05-17T19:34:48.804Z,12.00
2018-05-17T19:37:17.278Z,12.00
2018-05-17T19:39:44.633Z,11.90
2018-05-17T19:42:12.886Z,11.90
2018-05-17T19:44:40.397Z,11.90
2018-05-17T19:47:07.885Z,11.80
2018-05-17T19:49:35.435Z,11.90
2018-05-17T19:52:02.916Z,11.80
2018-05-17T19:54:30.415Z,11.80
2018-05-17T19:56:58.674Z,11.80
2018-05-17T19:59:26.277Z,11.70
2018-05-17T20:01:54.033Z,11.80
2018-05-17T20:04:21.544Z,11.80
2018-05-17T20:06:49.051Z,11.70
2018-05-17T20:09:16.553Z,11.70
2018-05-17T20:11:44.041Z,11.70
2018-05-17T20:14:11.573Z,11.70
2018-05-17T20:16:39.058Z,11.70
2018-05-17T20:19:06.578Z,11.70
2018-05-17T20:21:34.094Z,11.60
2018-05-17T20:24:01.607Z,11.70
2018-05-17T20:26:29.120Z,11.70
2018-05-17T20:28:57.228Z,11.60
2018-05-17T20:31:24.719Z,11.60
2018-05-17T20:33:52.396Z,11.50
2018-05-17T20:36:20.660Z,11.50
2018-05-17T20:38:48.187Z,11.50
2018-05-17T20:41:15.692Z,11.50
2018-05-17T20:43:44.006Z,11.50
2018-05-17T20:46:11.516Z,11.50
2018-05-17T20:48:39.819Z,11.50
2018-05-17T20:51:08.067Z,11.50
2018-05-17T20:53:35.580Z,11.40
2018-05-17T20:56:03.110Z,11.50
2018-05-17T20:58:31.356Z,11.40
2018-05-17T21:00:58.879Z,11.40
2018-05-17T21:03:26.362Z,11.50
2018-05-17T21:05:53.882Z,11.40
2018-05-17T21:08:21.403Z,11.40
2018-05-17T21:10:48.929Z,11.40
2018-05-17T21:13:16.412Z,11.40
2018-05-17T21:15:43.920Z,11.40
2018-05-17T21:18:11.453Z,11.30
2018-05-17T21:20:39.710Z,11.30
2018-05-17T21:23:07.238Z,11.30
2018-05-17T21:25:34.764Z,11.30
2018-05-17T21:28:03.058Z,11.20
2018-05-17T21:30:30.531Z,11.20
2018-05-17T21:32:58.060Z,11.30
2018-05-17T21:35:25.531Z,11.20
2018-05-17T21:37:53.068Z,11.20
2018-05-17T21:40:21.313Z,11.20
2018-05-17T21:42:48.817Z,11.10
2018-05-17T21:45:16.299Z,11.20
2018-05-17T21:47:43.800Z,11.20
2018-05-17T21:50:11.291Z,11.10
2018-05-17T21:52:38.802Z,11.10
2018-05-17T21:55:06.297Z,11.10
2018-05-17T21:57:34.605Z,11.00
2018-05-17T22:00:02.085Z,11.00
2018-05-17T22:02:29.579Z,11.00
2018-05-17T22:04:57.089Z,11.00
2018-05-17T22:07:24.572Z,11.00
2018-05-17T22:09:52.108Z,11.00
2018-05-17T22:12:19.594Z,11.00
2018-05-17T22:14:47.104Z,11.00
2018-05-17T22:17:14.585Z,11.00
2018-05-17T22:19:42.091Z,11.00
2018-05-17T22:22:10.353Z,10.90
2018-05-17T22:24:37.889Z,10.90
2018-05-17T22:27:05.367Z,10.90
2018-05-17T22:29:32.869Z,10.90
2018-05-17T22:32:00.373Z,10.90
2018-05-17T22:34:27.888Z,10.80
2018-05-17T22:36:55.392Z,10.80
2018-05-17T22:39:22.881Z,10.80
2018-05-17T22:41:51.157Z,10.70
2018-05-17T22:44:18.658Z,10.70
2018-05-17T22:46:46.189Z,10.70
2018-05-17T22:49:14.575Z,10.70
2018-05-17T22:51:42.931Z,10.70
2018-05-17T22:54:10.327Z,10.70
2018-05-17T22:56:49.680Z,10.70
2018-05-17T22:59:17.173Z,10.60
2018-05-17T23:01:44.656Z,10.60
2018-05-17T23:04:12.907Z,10.60
2018-05-17T23:06:41.203Z,10.60
2018-05-17T23:09:09.496Z,10.60
2018-05-17T23:11:37.845Z,10.50
2018-05-17T23:14:05.345Z,10.50
2018-05-17T23:16:32.894Z,10.50
2018-05-17T23:19:01.180Z,10.50
2018-05-17T23:21:28.682Z,10.40
2018-05-17T23:23:56.186Z,10.40
2018-05-17T23:26:24.486Z,10.40
2018-05-17T23:28:51.962Z,10.40
2018-05-17T23:31:19.465Z,10.40
2018-05-17T23:33:46.965Z,10.40
2018-05-17T23:36:14.457Z,10.40
2018-05-17T23:38:41.952Z,10.30
2018-05-17T23:41:21.953Z,10.40
2018-05-17T23:43:49.454Z,10.30
2018-05-17T23:46:17.693Z,10.40
2018-05-17T23:48:45.246Z,10.40
2018-05-17T23:51:12.736Z,10.40
2018-05-17T23:53:40.225Z,10.40
2018-05-17T23:56:07.748Z,10.40
2018-05-17T23:58:35.243Z,10.30
